Poomacha (214, 682) Station Data

Red Flag Warning: No
Fire Weather Zone: 258
SDGE Region: North East
Lat/Lon: 33.276/-116.873

Observations

Time Wind Speed/Gust Temp(F) RH Fuel Moist Fuel Temp(F) Dewpt(F) Tmax(F) Tmin(F) Accum Precip 10-min Precip SL Press(mb)
6/22 5:00am 134 2 G 6 70° 33% - - 39° 75.9° 68.8° - - -
6/22 4:50am 104 1 G 3 70° 34% - - 40° 75.9° 68.8° - - -
6/22 4:40am 285 1 G 2 70° 32% - - 39° 75.9° 68.8° - - -
6/22 4:30am 215 2 G 4 70° 33% - - 39° 75.9° 68.8° - - -
6/22 4:20am 160 3 G 5 70° 34% - - 41° 75.9° 69.5° - - -
6/22 4:10am 186 1 G 4 71° 32% - - 39° 75.9° 69.8° - - -
6/22 4:00am 206 1 G 3 71° 32% - - 40° 75.9° 70.5° - - -
6/22 3:50am 145 2 G 5 72° 31% - - 40° 75.9° 70.6° - - -
6/22 3:40am 174 2 G 7 72° 30% - - 39° 75.9° 70.6° - - -
6/22 3:30am 118 3 G 5 72° 32% - - 40° 75.9° 70.6° - - -
6/22 3:20am 167 1 G 3 72° 34% - - 42° 75.9° 70.8° - - -
6/22 3:10am 288 2 G 3 73° 30% - - 40° 75.9° 71.2° - - -
6/22 3:00am 273 1 G 2 73° 30% - - 39° 75.9° 71.2° - - -
6/22 2:50am 148 2 G 5 73° 32% - - 41° 75.9° 71.2° - - -
6/22 2:40am 257 1 G 2 73° 30% - - 40° 75.9° 71.2° - - -
6/22 2:30am 118 3 G 5 74° 32% - - 42° 75.9° 71.2° - - -
6/22 2:20am 87 1 G 5 72° 34% - - 42° 75.9° 71.2° - - -
6/22 2:10am 258 1 G 3 73° 31% - - 41° 75.9° 71.2° - - -
6/22 2:00am 161 1 G 4 73° 33% - - 42° 75.9° 71.2° - - -
6/22 1:50am 154 2 G 4 72° 35% - - 43° 75.9° 71.2° - - -
6/22 1:40am 164 1 G 3 73° 32% - - 41° 75.9° 71.3° - - -
6/22 1:30am 198 2 G 3 74° 29% - - 39° 75.9° 72.8° - - -
6/22 1:20am 242 2 G 3 74° 26% - - 37° 75.9° 72.8° - - -
6/22 1:10am 249 3 G 4 74° 27% - - 38° 75.9° 72.8° - - -
6/22 1:00am 246 2 G 3 74° 27% - - 38° 75.9° 72.8° - - -
6/22 12:50am 278 1 G 2 75° 25% - - 37° 75.9° 72.8° - - -
6/22 12:40am 295 2 G 3 74° 26% - - 37° 75.9° 72.8° - - -
6/22 12:30am 261 3 G 4 74° 27% - - 38° 75.9° 72.9° - - -
6/22 12:20am 297 1 G 3 75° 27% - - 39° 75.9° 72.9° - - -
6/22 12:10am 278 3 G 4 74° 30% - - 40° 75.5° 72.9° - - -
6/22 12:00am 223 2 G 3 73° 36% - - 45° 98.2° 69.4° - - -
6/21 11:50pm 251 2 G 3 74° 33% - - 43° 98.2° 69.4° - - -
6/21 11:40pm 210 1 G 3 75° 35% - - 46° 98.2° 69.4° - - -
6/21 11:30pm 244 1 G 3 75° 35% - - 45° 98.2° 69.4° - - -
6/21 11:20pm 273 0 G 2 74° 36% - - 45° 98.2° 69.4° - - -
6/21 11:10pm 93 1 G 2 75° 34% - - 45° 98.2° 69.4° - - -
6/21 11:00pm 215 0 G 1 76° 34% - - 46° 98.2° 69.4° - - -
6/21 10:50pm 105 0 G 1 76° 35% - - 46° 98.2° 69.4° - - -
6/21 10:40pm 59 0 G 1 76° 35% - - 46° 98.2° 69.4° - - -
6/21 10:30pm 53 0 G 1 77° 34% - - 46° 98.2° 69.4° - - -
6/21 10:20pm 39 1 G 2 76° 34% - - 46° 98.2° 69.4° - - -
6/21 10:10pm 270 1 G 3 78° 33% - - 47° 98.2° 69.4° - - -
6/21 10:00pm 278 1 G 2 77° 36% - - 48° 98.2° 69.4° - - -
6/21 9:50pm 201 1 G 2 77° 39% - - 50° 98.2° 69.4° - - -
6/21 9:40pm 158 0 G 0 77° 41% - - 52° 98.2° 69.4° - - -
6/21 9:30pm 254 0 G 2 78° 41% - - 52° 98.2° 69.4° - - -
6/21 9:20pm 78 1 G 2 79° 40% - - 52° 98.2° 69.4° - - -
6/21 9:10pm 299 1 G 1 80° 38% - - 52° 98.2° 69.4° - - -
6/21 9:00pm 280 2 G 3 79° 42% - - 54° 98.2° 69.4° - - -
6/21 8:50pm 291 2 G 3 80° 43% - - 56° 98.2° 69.4° - - -
6/21 8:40pm 48 1 G 2 80° 45% - - 56° 98.2° 69.4° - - -
6/21 8:30pm 80 1 G 3 80° 45% - - 57° 98.2° 69.4° - - -
6/21 8:20pm 276 1 G 3 82° 43% - - 57° 98.2° 69.4° - - -
6/21 8:10pm 291 2 G 3 82° 42% - - 56° 98.2° 69.4° - - -
6/21 8:00pm 295 4 G 5 82° 42% - - 57° 98.2° 69.4° - - -
6/21 7:50pm 292 5 G 6 83° 41% - - 57° 98.2° 69.4° - - -
6/21 7:40pm 290 4 G 5 84° 41% - - 57° 98.2° 69.4° - - -
6/21 7:30pm 296 3 G 5 85° 41% - - 58° 98.2° 69.4° - - -
6/21 7:20pm 291 3 G 4 86° 39% - - 58° 98.2° 69.4° - - -
6/21 7:10pm 275 1 G 4 87° 37% - - 58° 98.2° 69.4° - - -
6/21 7:00pm 278 2 G 4 88° 37% - - 58° 98.2° 69.4° - - -
6/21 6:50pm 252 3 G 5 87° 37% - - 58° 98.2° 69.4° - - -
6/21 6:40pm 244 3 G 7 87° 36% - - 58° 98.2° 69.4° - - -
6/21 6:30pm 245 4 G 7 88° 36% - - 58° 98.2° 69.4° - - -
6/21 6:20pm 248 4 G 8 88° 36% - - 58° 98.2° 69.4° - - -
6/21 6:10pm 246 6 G 10 88° 35% - - 58° 98.2° 69.4° - - -
6/21 6:00pm 243 6 G 12 89° 35% - - 57° 98.2° 69.4° - - -
6/21 5:50pm 244 6 G 11 90° 33% - - 56° 98.2° 69.4° - - -
6/21 5:40pm 242 6 G 11 91° 30% - - 55° 98.2° 69.4° - - -
6/21 5:30pm 257 4 G 8 92° 29% - - 55° 98.2° 69.4° - - -
6/21 5:20pm 241 4 G 11 92° 29% - - 55° 98.2° 69.4° - - -
6/21 5:10pm 245 6 G 11 92° 30% - - 56° 98.2° 69.4° - - -
6/21 5:00pm 242 6 G 12 92° 32% - - 57° 98.2° 69.4° - - -
6/21 4:50pm 257 5 G 11 93° 32% - - 59° 98.2° 69.4° - - -
6/21 4:40pm 256 5 G 11 93° 32% - - 59° 98.2° 69.4° - - -
6/21 4:30pm 242 6 G 11 92° 33% - - 59° 98.2° 69.4° - - -
6/21 4:20pm 251 5 G 11 92° 33% - - 59° 98.2° 69.4° - - -
6/21 4:10pm 239 6 G 12 94° 32% - - 60° 98.2° 69.4° - - -
6/21 4:00pm 241 5 G 10 95° 32% - - 60° 98.2° 69.4° - - -
6/21 3:50pm 244 5 G 10 95° 32% - - 60° 98.2° 69.4° - - -
6/21 3:40pm 257 4 G 11 96° 31% - - 60° 98.2° 69.4° - - -
6/21 3:30pm 253 6 G 12 95° 31% - - 60° 98.2° 69.4° - - -
6/21 3:20pm 251 4 G 11 96° 31% - - 60° 98.2° 69.4° - - -
6/21 3:10pm 246 5 G 10 95° 32% - - 60° 98.2° 69.4° - - -
6/21 3:00pm 244 6 G 11 95° 32% - - 60° 98.2° 69.4° - - -
6/21 2:50pm 245 5 G 12 97° 31% - - 61° 98.2° 69.4° - - -
6/21 2:40pm 257 4 G 11 96° 30% - - 60° 98.2° 69.4° - - -
6/21 2:30pm 254 5 G 10 96° 30% - - 59° 98.2° 69.4° - - -
6/21 2:20pm 247 6 G 12 96° 30% - - 59° 98.2° 69.4° - - -
6/21 2:10pm 256 5 G 10 97° 28% - - 59° 98.2° 69.4° - - -
6/21 2:00pm 249 5 G 11 97° 27% - - 58° 98.2° 69.4° - - -
6/21 1:50pm 266 6 G 11 97° 26% - - 56° 98.1° 69.4° - - -
6/21 1:40pm 247 5 G 13 97° 26% - - 56° 98.1° 69.4° - - -
6/21 1:30pm 248 5 G 10 97° 27% - - 57° 98.1° 69.4° - - -
6/21 1:20pm 249 5 G 12 96° 27% - - 57° 98.1° 69.4° - - -
6/21 1:10pm 253 5 G 12 96° 27% - - 57° 97.5° 69.4° - - -
6/21 1:00pm 250 6 G 11 95° 28% - - 57° 97° 69.4° - - -
6/21 12:50pm 244 6 G 11 95° 27% - - 56° 97° 69.4° - - -
6/21 12:40pm 252 6 G 11 95° 27% - - 56° 97° 69.4° - - -
6/21 12:30pm 253 6 G 9 95° 26% - - 55° 96.4° 69.4° - - -
6/21 12:20pm 251 6 G 11 95° 26% - - 54° 96.4° 69.4° - - -
6/21 12:10pm 251 5 G 9 95° 25% - - 54° 96.4° 69.4° - - -
6/21 12:00pm 253 5 G 8 94° 25% - - 53° 96.4° 69.4° - - -
6/21 11:50am 246 5 G 11 95° 25% - - 53° 96.4° 69.4° - - -
6/21 11:40am 251 5 G 10 95° 25% - - 53° 95.9° 69.4° - - -
6/21 11:30am 253 5 G 10 94° 24% - - 52° 95.5° 69.4° - - -
6/21 11:20am 247 4 G 8 94° 23% - - 51° 95.4° 69.4° - - -
6/21 11:10am 262 4 G 7 94° 22% - - 49° 95.4° 69.4° - - -
6/21 11:00am 246 3 G 7 94° 22% - - 49° 95.4° 69.4° - - -
6/21 10:50am 244 4 G 8 93° 22% - - 48° 94.5° 69.4° - - -
6/21 10:40am 253 4 G 7 92° 21% - - 46° 94.1° 69.4° - - -
6/21 10:30am 268 4 G 7 92° 21% - - 47° 94.1° 69.4° - - -
6/21 10:20am 238 3 G 6 92° 20% - - 45° 94.1° 69.4° - - -
6/21 10:10am 237 3 G 6 93° 18% - - 43° 94.1° 69.4° - - -
6/21 10:00am 144 2 G 4 93° 17% - - 42° 94.1° 69.4° - - -
6/21 9:50am 111 4 G 7 92° 18% - - 42° 92.8° 69.4° - - -
6/21 9:40am 104 7 G 9 90° 20% - - 44° 91.2° 69.4° - - -
6/21 9:30am 106 6 G 8 89° 22% - - 46° 89.8° 69.4° - - -
6/21 9:20am 99 7 G 10 88° 24% - - 46° 88.6° 69.4° - - -
6/21 9:10am 101 8 G 12 86° 25% - - 46° 87° 69.4° - - -
6/21 9:00am 103 6 G 9 86° 26% - - 47° 86.7° 69.4° - - -
6/21 8:50am 107 6 G 8 85° 28% - - 48° 85.5° 69.4° - - -
6/21 8:40am 108 4 G 8 84° 27% - - 47° 84.7° 69.4° - - -
6/21 8:30am 113 5 G 9 83° 28% - - 46° 83.3° 69.4° - - -
6/21 8:20am 118 5 G 7 81° 30% - - 47° 82.2° 69.4° - - -
6/21 8:10am 130 3 G 6 80° 31% - - 47° 80.9° 69.4° - - -
6/21 8:00am 130 4 G 6 79° 32% - - 46° 79.8° 69.4° - - -
6/21 7:50am 206 2 G 7 78° 31% - - 45° 79° 69.4° - - -
6/21 7:40am 145 3 G 6 77° 31% - - 44° 78.8° 69.4° - - -
6/21 7:30am 143 3 G 6 77° 32% - - 44° 78.3° 69.4° - - -
6/21 7:20am 161 2 G 5 76° 31% - - 44° 78.3° 69.4° - - -
6/21 7:10am 173 1 G 5 75° 32% - - 43° 78.3° 69.4° - - -
6/21 7:00am 152 2 G 5 75° 33% - - 44° 78.3° 69.4° - - -
6/21 6:50am 139 3 G 7 75° 31% - - 42° 78.3° 69.4° - - -
6/21 6:40am 193 2 G 6 73° 32% - - 42° 78.3° 69.4° - - -
6/21 6:30am 189 2 G 5 73° 33% - - 42° 78.3° 69.4° - - -
6/21 6:20am 159 3 G 6 73° 32% - - 42° 78.3° 69.4° - - -
6/21 6:10am 126 4 G 8 73° 34% - - 42° 78.3° 69.4° - - -
6/21 6:00am 120 4 G 8 71° 38% - - 44° 78.3° 69.4° - - -
6/21 5:50am 215 1 G 6 75° 29% - - 40° 78.3° 71.1° - - -
6/21 5:40am 230 2 G 4 74° 30% - - 41° 78.3° 71.1° - - -
6/21 5:30am 177 1 G 4 74° 34% - - 44° 78.3° 71.1° - - -
6/21 5:20am 88 4 G 10 75° 33% - - 44° 78.3° 71.1° - - -
6/21 5:10am 95 5 G 11 74° 33% - - 43° 78.3° 71.1° - - -
6/21 5:00am 110 4 G 7 75° 30% - - 42° 78.3° 71.1° - - -
6/21 4:50am 136 3 G 7 72° 34% - - 42° 78.3° 71.1° - - -
6/21 4:40am 165 1 G 4 72° 35% - - 43° 78.3° 71.1° - - -
6/21 4:30am 125 3 G 7 73° 33% - - 43° 78.3° 71.1° - - -
6/21 4:20am 179 2 G 5 73° 33% - - 42° 78.3° 71.1° - - -
6/21 4:10am 246 2 G 4 74° 31% - - 42° 78.3° 71.1° - - -
6/21 4:00am 153 1 G 4 73° 37% - - 46° 78.3° 71.1° - - -
6/21 3:50am 214 2 G 5 74° 36% - - 45° 78.3° 71.1° - - -
6/21 3:40am 131 3 G 7 75° 35% - - 46° 78.3° 71.1° - - -
6/21 3:30am 128 2 G 5 74° 38% - - 46° 78.3° 71.1° - - -
6/21 3:20am 276 1 G 4 75° 32% - - 43° 78.3° 71.1° - - -
6/21 3:10am 128 2 G 4 75° 35% - - 45° 78.3° 71.1° - - -
6/21 3:00am 137 2 G 4 72° 41% - - 47° 78.3° 71.1° - - -
6/21 2:50am 182 1 G 2 75° 38% - - 47° 78.3° 73° - - -
6/21 2:40am 232 1 G 4 76° 34% - - 45° 78.3° 73° - - -
6/21 2:30am 120 2 G 5 76° 35% - - 46° 78.3° 73° - - -
6/21 2:20am 123 3 G 6 74° 38% - - 47° 78.3° 73° - - -
6/21 2:10am 126 1 G 4 75° 36% - - 46° 78.3° 73° - - -
6/21 2:00am 159 2 G 4 75° 38% - - 47° 78.3° 73° - - -
6/21 1:50am 124 3 G 5 76° 37% - - 47° 78.3° 73° - - -
6/21 1:40am 132 1 G 6 75° 37% - - 47° 78.3° 73° - - -
6/21 1:30am 279 2 G 3 74° 37% - - 46° 78.3° 73° - - -
6/21 1:20am 148 1 G 2 75° 40% - - 49° 78.3° 73° - - -
6/21 1:10am 279 1 G 3 76° 35% - - 46° 78.3° 73° - - -
6/21 1:00am 199 2 G 3 74° 42% - - 49° 78.3° 73° - - -
6/21 12:50am 119 3 G 6 75° 41% - - 50° 78.3° 73.5° - - -
6/21 12:40am 209 1 G 2 75° 41% - - 50° 78.3° 73.9° - - -
6/21 12:30am 169 1 G 5 77° 38% - - 49° 78.3° 74.8° - - -
6/21 12:20am 59 1 G 3 75° 39% - - 49° 76.3° 74.8° - - -
6/21 12:10am 190 0 G 1 76° 40% - - 49° 76.3° 74.9° - - -
6/21 12:00am 84 0 G 1 76° 40% - - 50° 98.8° 70.1° - - -
6/20 11:50pm 232 0 G 1 76° 39% - - 50° 98.8° 70.1° - - -
6/20 11:40pm 283 2 G 4 76° 40% - - 50° 98.8° 70.1° - - -
6/20 11:30pm 124 2 G 5 76° 42% - - 51° 98.8° 70.1° - - -
6/20 11:20pm 202 0 G 1 78° 40% - - 52° 98.8° 70.1° - - -
6/20 11:10pm 287 2 G 3 78° 40% - - 52° 98.8° 70.1° - - -
6/20 11:00pm 326 1 G 3 78° 40% - - 51° 98.8° 70.1° - - -
6/20 10:50pm 70 1 G 2 77° 42% - - 52° 98.8° 70.1° - - -
6/20 10:40pm 264 1 G 2 79° 41% - - 53° 98.8° 70.1° - - -
6/20 10:30pm 298 2 G 3 78° 42% - - 53° 98.8° 70.1° - - -
6/20 10:20pm 143 1 G 3 78° 42% - - 54° 98.8° 70.1° - - -
6/20 10:10pm 73 1 G 2 78° 43% - - 54° 98.8° 70.1° - - -
6/20 10:00pm 83 1 G 3 79° 41% - - 54° 98.8° 70.1° - - -
6/20 9:50pm 291 2 G 3 80° 41% - - 54° 98.8° 70.1° - - -
6/20 9:40pm 291 2 G 3 80° 41% - - 54° 98.8° 70.1° - - -
6/20 9:30pm 264 2 G 3 80° 42% - - 55° 98.8° 70.1° - - -
6/20 9:20pm 236 1 G 2 80° 42% - - 55° 98.8° 70.1° - - -
6/20 9:10pm 49 1 G 2 81° 41% - - 55° 98.8° 70.1° - - -
6/20 9:00pm 55 2 G 3 81° 40% - - 54° 98.8° 70.1° - - -
6/20 8:50pm 83 0 G 2 81° 39% - - 54° 98.8° 70.1° - - -
6/20 8:40pm 93 2 G 2 83° 37% - - 54° 98.8° 70.1° - - -
6/20 8:30pm 87 1 G 2 83° 37% - - 54° 98.8° 70.1° - - -
6/20 8:20pm 187 1 G 3 84° 35% - - 54° 98.8° 70.1° - - -
6/20 8:10pm 305 2 G 2 85° 33% - - 53° 98.8° 70.1° - - -
6/20 8:00pm 327 2 G 2 85° 34% - - 53° 98.8° 70.1° - - -
6/20 7:50pm 328 2 G 3 85° 35% - - 54° 98.8° 70.1° - - -
6/20 7:40pm 298 2 G 3 85° 34% - - 54° 98.8° 70.1° - - -
6/20 7:30pm 287 2 G 3 87° 32% - - 53° 98.8° 70.1° - - -
6/20 7:20pm 268 2 G 5 88° 31% - - 54° 98.8° 70.1° - - -
6/20 7:10pm 258 2 G 5 88° 31% - - 54° 98.8° 70.1° - - -
6/20 7:00pm 249 4 G 7 89° 31% - - 54° 98.8° 70.1° - - -
6/20 6:50pm 247 4 G 7 89° 30% - - 54° 98.8° 70.1° - - -
6/20 6:40pm 247 3 G 6 90° 30% - - 55° 98.8° 70.1° - - -
6/20 6:30pm 246 4 G 7 90° 30% - - 55° 98.8° 70.1° - - -
6/20 6:20pm 245 5 G 8 90° 30% - - 54° 98.8° 70.1° - - -
6/20 6:10pm 242 5 G 9 91° 29% - - 54° 98.8° 70.1° - - -
6/20 6:00pm 246 5 G 8 91° 28% - - 54° 98.8° 70.1° - - -